createdAt,value
2018-07-09T00:00:13.506Z,20.66
2018-07-09T00:01:13.501Z,20.73
2018-07-09T00:02:13.496Z,20.72
2018-07-09T00:03:13.519Z,20.69
2018-07-09T00:04:13.502Z,20.64
2018-07-09T00:05:13.492Z,20.56
2018-07-09T00:06:13.506Z,20.51
2018-07-09T00:07:13.490Z,20.46
2018-07-09T00:08:13.498Z,20.48
2018-07-09T00:09:13.483Z,20.44
2018-07-09T00:10:13.481Z,20.46
2018-07-09T00:11:13.488Z,20.38
2018-07-09T00:12:13.490Z,20.34
2018-07-09T00:13:13.483Z,20.34
2018-07-09T00:14:13.473Z,20.31
2018-07-09T00:15:13.472Z,20.35
2018-07-09T00:16:13.477Z,20.37
2018-07-09T00:17:13.473Z,20.35
2018-07-09T00:18:13.469Z,20.38
2018-07-09T00:19:13.505Z,20.34
2018-07-09T00:20:13.460Z,20.34
2018-07-09T00:21:13.467Z,20.26
2018-07-09T00:22:13.456Z,20.26
2018-07-09T00:23:13.457Z,20.27
2018-07-09T00:24:13.452Z,20.30
2018-07-09T00:25:13.452Z,20.17
2018-07-09T00:26:13.475Z,20.15
2018-07-09T00:27:13.446Z,20.17
2018-07-09T00:28:13.451Z,20.19
2018-07-09T00:29:13.473Z,20.34
2018-07-09T00:30:13.466Z,20.31
2018-07-09T00:31:13.445Z,20.35
2018-07-09T00:32:13.493Z,20.34
2018-07-09T00:33:13.433Z,20.34
2018-07-09T00:34:13.439Z,20.40
2018-07-09T00:35:13.435Z,20.40
2018-07-09T00:36:13.425Z,20.35
2018-07-09T00:37:13.428Z,20.35
2018-07-09T00:38:13.423Z,20.33
2018-07-09T00:39:13.424Z,20.20
2018-07-09T00:40:13.417Z,20.15
2018-07-09T00:41:13.421Z,20.10
2018-07-09T00:42:13.464Z,20.10
2018-07-09T00:43:13.412Z,20.10
2018-07-09T00:44:13.417Z,20.08
2018-07-09T00:45:13.414Z,19.98
2018-07-09T00:46:13.406Z,20.02
2018-07-09T00:47:13.413Z,19.92
2018-07-09T00:48:13.408Z,19.97
2018-07-09T00:49:13.399Z,19.90
2018-07-09T00:50:13.401Z,19.90
2018-07-09T00:51:13.406Z,19.89
2018-07-09T00:52:13.430Z,19.90
2018-07-09T00:53:13.397Z,19.83
2018-07-09T00:54:13.396Z,19.83
2018-07-09T00:55:13.393Z,19.90
2018-07-09T00:56:13.383Z,19.83
2018-07-09T00:57:13.381Z,19.83
2018-07-09T00:58:13.378Z,19.76
2018-07-09T00:59:13.414Z,19.78
2018-07-09T01:00:13.381Z,19.76
2018-07-09T01:01:13.373Z,19.75
2018-07-09T01:02:13.403Z,19.76
2018-07-09T01:03:13.368Z,19.75
2018-07-09T01:04:13.363Z,19.75
2018-07-09T01:05:13.364Z,19.58
2018-07-09T01:06:13.360Z,19.71
2018-07-09T01:07:13.358Z,19.78
2018-07-09T01:08:13.353Z,19.76
2018-07-09T01:09:13.354Z,19.78
2018-07-09T01:10:13.352Z,19.80
2018-07-09T01:11:13.403Z,19.79
2018-07-09T01:12:13.346Z,19.76
2018-07-09T01:13:13.344Z,19.78
2018-07-09T01:14:13.345Z,19.75
2018-07-09T01:15:13.338Z,19.68
2018-07-09T01:16:13.336Z,19.76
2018-07-09T01:17:13.333Z,19.76
2018-07-09T01:18:13.333Z,19.80
2018-07-09T01:19:13.328Z,19.61
2018-07-09T01:20:13.331Z,19.65
2018-07-09T01:21:13.324Z,19.61
2018-07-09T01:22:13.321Z,19.62
2018-07-09T01:23:13.318Z,19.68
2018-07-09T01:24:13.323Z,19.64
2018-07-09T01:25:13.312Z,19.50
2018-07-09T01:26:13.311Z,19.49
2018-07-09T01:27:13.312Z,19.49
2018-07-09T01:28:13.311Z,19.42
2018-07-09T01:29:13.312Z,19.52
2018-07-09T01:30:13.312Z,19.40
2018-07-09T01:31:13.300Z,19.42
2018-07-09T01:32:13.298Z,19.42
2018-07-09T01:33:13.291Z,19.35
2018-07-09T01:34:13.288Z,19.28
2018-07-09T01:35:13.322Z,19.30
2018-07-09T01:36:13.282Z,19.28
2018-07-09T01:37:13.284Z,19.31
2018-07-09T01:38:13.284Z,19.42
2018-07-09T01:39:13.276Z,19.38
2018-07-09T01:40:13.280Z,19.49
2018-07-09T01:41:13.275Z,19.40
2018-07-09T01:42:13.269Z,19.49
2018-07-09T01:43:13.263Z,19.43
2018-07-09T01:44:13.257Z,19.47
2018-07-09T01:45:13.258Z,19.42
2018-07-09T01:46:13.253Z,19.42
2018-07-09T01:47:13.251Z,19.39
2018-07-09T01:48:13.250Z,19.38
2018-07-09T01:49:13.247Z,19.46
2018-07-09T01:50:13.249Z,19.32
2018-07-09T01:51:13.239Z,19.35
2018-07-09T01:52:13.236Z,19.35
2018-07-09T01:53:13.233Z,19.32
2018-07-09T01:54:13.234Z,19.24
2018-07-09T01:55:13.262Z,19.24
2018-07-09T01:56:13.223Z,19.20
2018-07-09T01:57:13.228Z,19.10
2018-07-09T01:58:13.218Z,19.12
2018-07-09T01:59:13.215Z,19.12
2018-07-09T02:00:13.218Z,19.09
2018-07-09T02:01:13.216Z,19.05
2018-07-09T02:02:13.216Z,18.97
2018-07-09T02:03:13.202Z,19.05
2018-07-09T02:04:13.206Z,19.07
2018-07-09T02:05:13.226Z,19.02
2018-07-09T02:06:13.197Z,18.96
2018-07-09T02:07:13.195Z,18.91
2018-07-09T02:08:13.191Z,18.87
2018-07-09T02:09:13.185Z,18.99
2018-07-09T02:10:13.186Z,19.01
2018-07-09T02:11:13.178Z,18.94
2018-07-09T02:12:13.181Z,18.93
2018-07-09T02:13:13.173Z,18.94
2018-07-09T02:14:13.169Z,18.91
2018-07-09T02:15:13.193Z,18.91
2018-07-09T02:16:13.167Z,18.82
2018-07-09T02:17:13.160Z,18.87
2018-07-09T02:18:13.162Z,18.83
2018-07-09T02:19:13.159Z,18.86
2018-07-09T02:20:13.165Z,18.82
2018-07-09T02:21:13.150Z,18.78
2018-07-09T02:22:13.144Z,18.79
2018-07-09T02:23:13.143Z,18.86
2018-07-09T02:24:13.144Z,18.90
2018-07-09T02:25:13.164Z,18.72
2018-07-09T02:26:13.133Z,18.89
2018-07-09T02:27:13.138Z,18.94
2018-07-09T02:28:13.127Z,18.91
2018-07-09T02:29:13.132Z,18.93
2018-07-09T02:30:13.126Z,18.96
2018-07-09T02:31:13.127Z,18.96
2018-07-09T02:32:13.122Z,18.99
2018-07-09T02:33:13.161Z,18.94
2018-07-09T02:34:13.118Z,18.91
2018-07-09T02:35:13.128Z,18.93
2018-07-09T02:36:13.105Z,18.89
2018-07-09T02:37:13.101Z,18.91
2018-07-09T02:38:13.099Z,18.74
2018-07-09T02:39:13.095Z,18.87
2018-07-09T02:40:13.093Z,18.74
2018-07-09T02:41:13.088Z,18.79
2018-07-09T02:42:13.092Z,18.76
2018-07-09T02:43:13.085Z,18.83
2018-07-09T02:44:13.079Z,18.78
2018-07-09T02:45:13.097Z,18.71
2018-07-09T02:46:13.079Z,18.75
2018-07-09T02:47:13.080Z,18.75
2018-07-09T02:48:13.072Z,18.78
2018-07-09T02:49:13.124Z,18.76
2018-07-09T02:50:13.075Z,18.76
2018-07-09T02:51:13.069Z,18.72
2018-07-09T02:52:13.125Z,18.86
2018-07-09T02:53:13.058Z,18.75
2018-07-09T02:54:13.176Z,18.74
2018-07-09T02:55:13.065Z,18.72
2018-07-09T02:56:13.161Z,18.72
2018-07-09T02:57:13.039Z,18.64
2018-07-09T02:58:13.043Z,18.60
2018-07-09T02:59:13.037Z,18.62
2018-07-09T03:00:13.027Z,18.49
2018-07-09T03:01:13.202Z,18.47
2018-07-09T03:02:13.029Z,18.47
2018-07-09T03:03:13.033Z,18.50
2018-07-09T03:04:13.029Z,18.49
2018-07-09T03:05:13.034Z,18.54
2018-07-09T03:06:13.013Z,18.50
2018-07-09T03:07:13.010Z,18.54
2018-07-09T03:08:13.009Z,18.59
2018-07-09T03:09:13.005Z,18.56
2018-07-09T03:10:12.997Z,18.60
2018-07-09T03:11:12.994Z,18.49
2018-07-09T03:12:12.996Z,18.46
2018-07-09T03:13:12.996Z,18.41
2018-07-09T03:14:12.985Z,18.51
2018-07-09T03:15:13.004Z,18.50
2018-07-09T03:16:12.977Z,18.41
2018-07-09T03:17:12.983Z,18.49
2018-07-09T03:18:12.976Z,18.50
2018-07-09T03:19:13.081Z,18.47
2018-07-09T03:20:12.968Z,18.49
2018-07-09T03:21:12.962Z,18.53
2018-07-09T03:22:12.958Z,18.51
2018-07-09T03:23:12.955Z,18.56
2018-07-09T03:24:12.949Z,18.51
2018-07-09T03:25:12.969Z,18.53
2018-07-09T03:26:12.951Z,18.51
2018-07-09T03:27:12.944Z,18.47
2018-07-09T03:28:12.941Z,18.49
2018-07-09T03:29:12.933Z,18.50
2018-07-09T03:30:12.939Z,18.51
2018-07-09T03:31:12.932Z,18.41
2018-07-09T03:32:12.929Z,18.38
2018-07-09T03:33:12.925Z,18.42
2018-07-09T03:34:12.919Z,18.32
2018-07-09T03:35:12.915Z,18.44
2018-07-09T03:36:12.907Z,18.34
2018-07-09T03:37:12.905Z,18.38
2018-07-09T03:38:12.902Z,18.35
2018-07-09T03:39:12.899Z,18.39
2018-07-09T03:40:12.899Z,18.32
2018-07-09T03:41:12.898Z,18.28
2018-07-09T03:42:12.890Z,18.31
2018-07-09T03:43:12.889Z,18.31
2018-07-09T03:44:12.882Z,18.29
2018-07-09T03:45:12.889Z,18.32
2018-07-09T03:46:12.880Z,18.35
2018-07-09T03:47:12.870Z,18.31
2018-07-09T03:48:12.872Z,18.42
2018-07-09T03:49:12.863Z,18.41
2018-07-09T03:50:12.860Z,18.47
2018-07-09T03:51:12.863Z,18.51
2018-07-09T03:52:12.859Z,18.49
2018-07-09T03:53:12.850Z,18.47
2018-07-09T03:54:12.854Z,18.49
2018-07-09T03:55:12.853Z,18.51
2018-07-09T03:56:12.838Z,18.50
2018-07-09T03:57:12.839Z,18.47
2018-07-09T03:58:12.832Z,18.41
2018-07-09T03:59:12.833Z,18.50
2018-07-09T04:00:12.832Z,18.47
2018-07-09T04:01:12.830Z,18.54
2018-07-09T04:02:12.828Z,18.46
2018-07-09T04:03:12.827Z,18.49
2018-07-09T04:04:12.814Z,18.51
2018-07-09T04:05:12.815Z,18.46
2018-07-09T04:06:12.819Z,18.47
2018-07-09T04:07:12.815Z,18.50
2018-07-09T04:08:12.795Z,18.49
2018-07-09T04:09:12.798Z,18.53
2018-07-09T04:10:12.792Z,18.50
2018-07-09T04:11:12.802Z,18.44
2018-07-09T04:12:12.788Z,18.46
2018-07-09T04:13:12.789Z,18.51
2018-07-09T04:14:12.784Z,18.51
2018-07-09T04:15:12.773Z,18.56
2018-07-09T04:16:12.780Z,18.56
2018-07-09T04:17:12.765Z,18.57
2018-07-09T04:18:12.765Z,18.54
2018-07-09T04:19:12.760Z,18.59
2018-07-09T04:20:12.754Z,18.62
2018-07-09T04:21:12.791Z,18.60
2018-07-09T04:22:12.757Z,18.54
2018-07-09T04:23:12.757Z,18.65
2018-07-09T04:24:12.742Z,18.62
2018-07-09T04:25:12.738Z,18.86
2018-07-09T04:26:12.761Z,19.27
2018-07-09T04:27:12.735Z,19.94
2018-07-09T04:28:12.728Z,20.61
2018-07-09T04:29:12.726Z,21.21
2018-07-09T04:30:12.723Z,21.71
2018-07-09T04:31:12.724Z,22.04
2018-07-09T04:32:12.723Z,22.33
2018-07-09T04:33:12.716Z,22.61
2018-07-09T04:34:12.738Z,22.94
2018-07-09T04:35:12.717Z,23.26
2018-07-09T04:36:12.709Z,23.57
2018-07-09T04:37:12.710Z,23.77
2018-07-09T04:38:12.709Z,23.90
2018-07-09T04:39:12.721Z,24.19
2018-07-09T04:40:12.705Z,24.27
2018-07-09T04:41:12.711Z,24.39
2018-07-09T04:42:12.709Z,24.66
2018-07-09T04:43:12.745Z,24.77
2018-07-09T04:44:12.707Z,24.94
2018-07-09T04:45:12.714Z,25.12
2018-07-09T04:46:12.707Z,25.19
2018-07-09T04:47:12.716Z,25.11
2018-07-09T04:48:12.710Z,25.26
2018-07-09T04:49:12.719Z,25.36
2018-07-09T04:50:12.726Z,25.51
2018-07-09T04:51:12.714Z,25.64
2018-07-09T04:52:12.720Z,25.69
2018-07-09T04:53:12.726Z,25.86
2018-07-09T04:54:12.730Z,25.97
2018-07-09T04:55:12.736Z,25.64
2018-07-09T04:56:12.731Z,25.76
2018-07-09T04:57:12.733Z,25.93
2018-07-09T04:58:12.735Z,25.78
2018-07-09T04:59:12.747Z,25.78
2018-07-09T05:00:12.742Z,24.46
2018-07-09T05:01:12.747Z,24.37
2018-07-09T05:02:12.754Z,24.00
2018-07-09T05:03:12.753Z,24.14
2018-07-09T05:04:12.762Z,24.11
2018-07-09T05:05:12.762Z,24.31
2018-07-09T05:06:12.766Z,24.27
2018-07-09T05:07:12.778Z,24.11
2018-07-09T05:08:12.783Z,24.34
2018-07-09T05:09:12.782Z,24.45
2018-07-09T05:10:12.800Z,24.92
2018-07-09T05:11:12.794Z,25.05
2018-07-09T05:12:12.794Z,25.46
2018-07-09T05:13:12.813Z,25.66
2018-07-09T05:14:12.801Z,25.74
2018-07-09T05:15:12.803Z,26.19
2018-07-09T05:16:12.811Z,26.34
2018-07-09T05:17:12.822Z,26.61
2018-07-09T05:18:12.815Z,26.79
2018-07-09T05:19:12.820Z,26.49
2018-07-09T05:20:12.824Z,26.28
2018-07-09T05:21:12.827Z,26.13
2018-07-09T05:22:12.839Z,25.97
2018-07-09T05:23:12.847Z,25.85
2018-07-09T05:24:12.835Z,25.96
2018-07-09T05:25:12.842Z,25.93
2018-07-09T05:26:12.854Z,25.71
2018-07-09T05:27:12.846Z,25.66
2018-07-09T05:28:12.850Z,25.41
2018-07-09T05:29:12.860Z,25.11
2018-07-09T05:30:12.860Z,24.55
2018-07-09T05:31:12.861Z,23.72
2018-07-09T05:32:12.859Z,23.19
2018-07-09T05:33:12.868Z,23.21
2018-07-09T05:34:12.871Z,23.00
2018-07-09T05:35:12.883Z,22.76
2018-07-09T05:36:12.866Z,22.46
2018-07-09T05:37:12.870Z,22.23
2018-07-09T05:38:12.878Z,21.99
2018-07-09T05:39:12.878Z,21.96
2018-07-09T05:40:12.879Z,21.98
2018-07-09T05:41:12.871Z,21.98
2018-07-09T05:42:12.869Z,22.04
2018-07-09T05:43:12.872Z,21.99
2018-07-09T05:44:12.876Z,22.23
2018-07-09T05:45:12.873Z,22.21
2018-07-09T05:46:12.870Z,22.02
2018-07-09T05:47:12.874Z,22.02
2018-07-09T05:48:12.869Z,22.20
2018-07-09T05:49:12.875Z,22.35
2018-07-09T05:50:12.884Z,22.48
2018-07-09T05:51:12.871Z,22.52
2018-07-09T05:52:12.885Z,22.49
2018-07-09T05:53:12.875Z,22.46
2018-07-09T05:54:12.874Z,22.52
2018-07-09T05:55:12.869Z,22.23
2018-07-09T05:56:12.866Z,21.90
2018-07-09T05:57:12.873Z,21.93
2018-07-09T05:58:12.877Z,21.77
2018-07-09T05:59:12.868Z,21.90
2018-07-09T06:00:12.869Z,21.90
2018-07-09T06:01:12.867Z,22.19
2018-07-09T06:02:12.870Z,22.41
2018-07-09T06:03:12.867Z,22.54
2018-07-09T06:04:12.866Z,22.82
2018-07-09T06:05:12.869Z,22.97
2018-07-09T06:06:12.868Z,23.07
2018-07-09T06:07:12.868Z,23.14
2018-07-09T06:08:12.861Z,23.22
2018-07-09T06:09:12.869Z,23.29
2018-07-09T06:10:12.865Z,23.34
2018-07-09T06:11:12.901Z,23.45
2018-07-09T06:12:12.863Z,23.39
2018-07-09T06:13:12.880Z,23.50
2018-07-09T06:14:12.859Z,23.59
2018-07-09T06:15:12.858Z,23.60
2018-07-09T06:16:12.860Z,23.44
2018-07-09T06:17:12.858Z,23.35
2018-07-09T06:18:12.856Z,23.07
2018-07-09T06:19:12.885Z,22.74
2018-07-09T06:20:12.860Z,22.42
2018-07-09T06:21:12.858Z,22.21
2018-07-09T06:22:12.869Z,22.15
2018-07-09T06:23:12.863Z,22.20
2018-07-09T06:24:12.865Z,22.15
2018-07-09T06:25:12.871Z,22.02
2018-07-09T06:26:12.857Z,22.23
2018-07-09T06:27:12.864Z,22.36
2018-07-09T06:28:12.854Z,22.44
2018-07-09T06:29:12.862Z,22.48
2018-07-09T06:30:12.860Z,22.57
2018-07-09T06:31:12.861Z,22.70
2018-07-09T06:32:12.856Z,22.96
2018-07-09T06:33:12.852Z,23.06
2018-07-09T06:34:12.851Z,23.25
2018-07-09T06:35:12.853Z,23.29
2018-07-09T06:36:12.857Z,23.00
2018-07-09T06:37:12.850Z,23.04
2018-07-09T06:38:12.849Z,23.04
2018-07-09T06:39:12.847Z,23.09
2018-07-09T06:40:12.862Z,23.16
2018-07-09T06:41:12.847Z,23.32
2018-07-09T06:42:12.848Z,23.53
2018-07-09T06:43:12.847Z,23.67
2018-07-09T06:44:12.845Z,23.71
2018-07-09T06:45:12.849Z,23.39
2018-07-09T06:46:12.843Z,23.53
2018-07-09T06:47:12.845Z,23.44
2018-07-09T06:48:12.874Z,23.62
2018-07-09T06:49:12.845Z,23.59
2018-07-09T06:50:12.852Z,23.74
2018-07-09T06:51:12.862Z,23.86
2018-07-09T06:52:12.853Z,24.00
2018-07-09T06:53:12.842Z,23.77
2018-07-09T06:54:12.845Z,23.49
2018-07-09T06:55:12.844Z,23.41
2018-07-09T06:56:12.850Z,23.37
2018-07-09T06:57:12.852Z,23.47
2018-07-09T06:58:12.852Z,23.77
2018-07-09T06:59:12.842Z,23.72
2018-07-09T07:00:12.848Z,23.89
2018-07-09T07:01:12.845Z,23.90
2018-07-09T07:02:12.866Z,24.04
2018-07-09T07:03:12.842Z,24.12
2018-07-09T07:04:12.841Z,24.15
2018-07-09T07:05:12.852Z,24.30
2018-07-09T07:06:12.850Z,24.34
2018-07-09T07:07:12.843Z,24.21
2018-07-09T07:08:12.846Z,23.81
2018-07-09T07:09:13.015Z,23.84
2018-07-09T07:10:12.851Z,24.04
2018-07-09T07:11:12.858Z,24.08
2018-07-09T07:12:12.855Z,24.15
2018-07-09T07:13:12.844Z,24.33
2018-07-09T07:14:12.860Z,24.29
2018-07-09T07:15:12.851Z,24.19
2018-07-09T07:16:12.846Z,24.14
2018-07-09T07:17:12.844Z,24.18
2018-07-09T07:18:12.844Z,24.34
2018-07-09T07:19:12.846Z,24.45
2018-07-09T07:20:12.844Z,24.39
2018-07-09T07:21:12.844Z,24.36
2018-07-09T07:22:12.847Z,24.48
2018-07-09T07:23:12.846Z,24.60
2018-07-09T07:24:12.854Z,24.74
2018-07-09T07:25:12.853Z,24.90
2018-07-09T07:26:12.863Z,24.90
2018-07-09T07:27:12.855Z,25.02
2018-07-09T07:28:12.849Z,24.86
2018-07-09T07:29:12.853Z,24.94
2018-07-09T07:30:12.848Z,24.66
2018-07-09T07:31:12.850Z,24.64
2018-07-09T07:32:12.863Z,24.84
2018-07-09T07:33:12.882Z,24.90
2018-07-09T07:34:12.851Z,25.04
2018-07-09T07:35:12.853Z,25.24
2018-07-09T07:36:12.852Z,24.98
2018-07-09T07:37:12.858Z,24.71
2018-07-09T07:38:12.858Z,24.56
2018-07-09T07:39:12.862Z,24.68
2018-07-09T07:40:12.857Z,24.71
2018-07-09T07:41:12.856Z,24.46
2018-07-09T07:42:12.858Z,24.48
2018-07-09T07:43:12.863Z,24.37
2018-07-09T07:44:12.858Z,24.45
2018-07-09T07:45:12.867Z,24.45
2018-07-09T07:46:12.860Z,24.36
2018-07-09T07:47:12.875Z,24.63
2018-07-09T07:48:12.860Z,24.64
2018-07-09T07:49:12.871Z,24.80
2018-07-09T07:50:12.926Z,24.86
2018-07-09T07:51:12.870Z,24.99
2018-07-09T07:52:12.872Z,25.07
2018-07-09T07:53:12.870Z,25.04
2018-07-09T07:54:12.865Z,25.17
2018-07-09T07:55:12.865Z,25.19
2018-07-09T07:56:12.877Z,25.24
2018-07-09T07:57:12.876Z,25.30
2018-07-09T07:58:12.868Z,25.41
2018-07-09T07:59:12.871Z,25.53
2018-07-09T08:00:12.872Z,25.66
2018-07-09T08:01:12.875Z,25.75
2018-07-09T08:02:12.877Z,25.85
2018-07-09T08:03:12.874Z,25.66
2018-07-09T08:04:12.875Z,25.35
2018-07-09T08:05:12.879Z,25.14
2018-07-09T08:06:12.876Z,25.08
2018-07-09T08:07:12.882Z,25.17
2018-07-09T08:08:12.887Z,25.27
2018-07-09T08:09:12.925Z,25.27
2018-07-09T08:10:12.887Z,25.38
2018-07-09T08:11:12.888Z,25.53
2018-07-09T08:13:00.533Z,25.49
2018-07-09T08:13:27.989Z,25.59
2018-07-09T08:14:12.892Z,25.57
2018-07-09T08:15:12.897Z,25.45
2018-07-09T08:16:12.890Z,25.45
2018-07-09T08:17:12.888Z,25.24
2018-07-09T08:18:12.894Z,25.05
2018-07-09T08:19:12.898Z,25.02
2018-07-09T08:20:12.903Z,25.24
2018-07-09T08:21:12.895Z,25.30
2018-07-09T08:22:12.899Z,25.42
2018-07-09T08:23:12.910Z,25.36
2018-07-09T08:24:12.903Z,25.27
2018-07-09T08:25:12.904Z,25.27
2018-07-09T08:26:12.899Z,25.30
2018-07-09T08:27:12.910Z,25.05
2018-07-09T08:28:12.904Z,25.05
2018-07-09T08:29:12.907Z,25.07
2018-07-09T08:30:12.903Z,25.23
2018-07-09T08:31:13.000Z,25.41
2018-07-09T08:32:12.906Z,25.44
2018-07-09T08:33:12.905Z,25.57
2018-07-09T08:34:12.906Z,25.53
2018-07-09T08:35:12.915Z,25.69
2018-07-09T08:36:12.909Z,25.78
2018-07-09T08:37:12.923Z,25.83
2018-07-09T08:38:12.919Z,26.04
2018-07-09T08:39:12.916Z,26.28
2018-07-09T08:40:12.914Z,26.41
2018-07-09T08:41:12.915Z,26.54
2018-07-09T08:42:12.929Z,26.59
2018-07-09T08:43:12.919Z,26.61
2018-07-09T08:44:12.919Z,26.81
2018-07-09T08:45:12.922Z,26.91
2018-07-09T08:46:12.922Z,27.08
2018-07-09T08:47:12.924Z,27.01
2018-07-09T08:48:12.936Z,26.75
2018-07-09T08:49:12.931Z,26.31
2018-07-09T08:50:12.940Z,26.46
2018-07-09T08:51:12.933Z,26.47
2018-07-09T08:52:12.933Z,26.31
2018-07-09T08:53:12.946Z,26.23
2018-07-09T08:54:12.948Z,26.17
2018-07-09T08:55:12.956Z,25.97
2018-07-09T08:56:12.943Z,25.96
2018-07-09T08:57:12.945Z,26.16
2018-07-09T08:58:12.954Z,26.34
2018-07-09T08:59:12.945Z,26.46
2018-07-09T09:00:12.947Z,26.57
2018-07-09T09:01:12.949Z,26.75
2018-07-09T09:02:12.961Z,26.90
2018-07-09T09:03:12.963Z,26.98
2018-07-09T09:04:12.957Z,27.08
2018-07-09T09:05:12.956Z,27.08
2018-07-09T09:06:12.960Z,27.12
2018-07-09T09:07:12.962Z,26.94
2018-07-09T09:08:12.972Z,26.96
2018-07-09T09:09:12.965Z,27.09
2018-07-09T09:10:13.003Z,27.21
2018-07-09T09:11:12.969Z,27.28
2018-07-09T09:12:12.973Z,27.27
2018-07-09T09:13:12.974Z,27.45
2018-07-09T09:14:12.976Z,27.42
2018-07-09T09:15:12.990Z,27.46
2018-07-09T09:16:12.983Z,27.58
2018-07-09T09:17:12.982Z,27.61
2018-07-09T09:18:13.000Z,27.77
2018-07-09T09:19:12.996Z,28.03
2018-07-09T09:20:12.995Z,28.03
2018-07-09T09:21:12.996Z,28.09
2018-07-09T09:22:12.997Z,28.14
2018-07-09T09:23:13.010Z,28.23
2018-07-09T09:24:13.000Z,28.13
2018-07-09T09:25:13.000Z,28.11
2018-07-09T09:26:13.004Z,28.06
2018-07-09T09:27:13.007Z,28.17
2018-07-09T09:28:13.017Z,28.06
2018-07-09T09:29:13.011Z,28.11
2018-07-09T09:30:13.018Z,28.14
2018-07-09T09:31:13.035Z,28.25
2018-07-09T09:32:13.024Z,28.33
2018-07-09T09:33:13.030Z,28.17
2018-07-09T09:34:13.025Z,28.24
2018-07-09T09:35:13.043Z,28.30
2018-07-09T09:36:13.033Z,28.28
2018-07-09T09:37:13.035Z,28.23
2018-07-09T09:38:13.050Z,28.21
2018-07-09T09:39:13.038Z,28.23
2018-07-09T09:40:13.047Z,28.24
2018-07-09T09:41:13.045Z,28.18
2018-07-09T09:42:13.049Z,28.18
2018-07-09T09:43:13.153Z,28.24
2018-07-09T09:44:13.052Z,28.24
2018-07-09T09:45:13.061Z,28.28
2018-07-09T09:46:13.066Z,28.25
2018-07-09T09:47:13.064Z,28.30
2018-07-09T09:48:13.071Z,28.24
2018-07-09T09:49:13.083Z,28.28
2018-07-09T09:50:13.085Z,28.30
2018-07-09T09:51:13.074Z,28.39
2018-07-09T09:52:13.082Z,28.39
2018-07-09T09:53:13.082Z,28.42
2018-07-09T09:54:13.083Z,28.54
2018-07-09T09:55:13.099Z,28.61
2018-07-09T09:56:13.090Z,28.70
2018-07-09T09:57:13.103Z,28.58
2018-07-09T09:58:13.109Z,28.50
2018-07-09T09:59:13.107Z,28.32
2018-07-09T10:00:13.106Z,28.36
2018-07-09T10:01:13.106Z,28.38
2018-07-09T10:02:13.112Z,28.28
2018-07-09T10:03:13.127Z,28.27
2018-07-09T10:04:13.113Z,28.17
2018-07-09T10:05:13.119Z,28.09
2018-07-09T10:06:13.210Z,28.02
2018-07-09T10:07:13.139Z,28.08
2018-07-09T10:08:13.135Z,28.15
2018-07-09T10:09:13.143Z,28.21
2018-07-09T10:10:13.134Z,28.35
2018-07-09T10:11:13.138Z,28.27
2018-07-09T10:12:13.147Z,28.46
2018-07-09T10:13:13.142Z,28.45
2018-07-09T10:14:13.144Z,28.45
2018-07-09T10:15:13.159Z,28.28
2018-07-09T10:16:13.152Z,28.42
2018-07-09T10:17:13.162Z,28.27
2018-07-09T10:18:13.157Z,28.30
2018-07-09T10:19:13.172Z,28.38
2018-07-09T10:20:13.163Z,28.38
2018-07-09T10:21:13.176Z,28.30
2018-07-09T10:22:13.171Z,28.30
2018-07-09T10:23:13.279Z,28.50
2018-07-09T10:24:13.176Z,28.55
2018-07-09T10:25:13.178Z,28.64
2018-07-09T10:26:13.188Z,28.55
2018-07-09T10:27:13.191Z,28.52
2018-07-09T10:28:13.188Z,28.55
2018-07-09T10:29:13.201Z,28.58
2018-07-09T10:30:13.196Z,28.57
2018-07-09T10:31:13.212Z,28.70
2018-07-09T10:32:13.203Z,28.74
2018-07-09T10:33:13.206Z,28.58
2018-07-09T10:34:13.215Z,28.48
2018-07-09T10:35:13.219Z,28.38
2018-07-09T10:36:13.226Z,28.39
2018-07-09T10:37:13.225Z,28.51
2018-07-09T10:38:13.219Z,28.48
2018-07-09T10:39:13.223Z,28.43
2018-07-09T10:40:13.230Z,28.48
2018-07-09T10:41:13.235Z,28.32
2018-07-09T10:42:13.246Z,28.23
2018-07-09T10:43:13.243Z,28.21
2018-07-09T10:44:13.243Z,28.25
2018-07-09T10:45:13.243Z,28.30
2018-07-09T10:46:13.247Z,28.40
2018-07-09T10:47:13.285Z,28.43
2018-07-09T10:48:13.262Z,28.43
2018-07-09T10:49:13.260Z,28.51
2018-07-09T10:50:13.261Z,28.54
2018-07-09T10:51:13.269Z,28.60
2018-07-09T10:52:13.267Z,28.65
2018-07-09T10:53:13.286Z,28.61
2018-07-09T10:54:13.281Z,28.62
2018-07-09T10:55:13.338Z,28.69
2018-07-09T10:56:13.276Z,28.70
2018-07-09T10:57:13.279Z,28.69
2018-07-09T10:58:13.287Z,28.76
2018-07-09T10:59:13.294Z,28.82
2018-07-09T11:00:13.296Z,28.77
2018-07-09T11:01:13.295Z,28.87
2018-07-09T11:02:13.296Z,28.85
2018-07-09T11:03:13.308Z,28.94
2018-07-09T11:04:13.312Z,29.03
2018-07-09T11:05:13.315Z,29.18
2018-07-09T11:06:13.309Z,29.21
2018-07-09T11:07:13.325Z,29.25
2018-07-09T11:08:13.329Z,29.25
2018-07-09T11:09:13.321Z,29.17
2018-07-09T11:10:13.426Z,29.15
2018-07-09T11:11:13.335Z,29.15
2018-07-09T11:12:13.416Z,29.05
2018-07-09T11:13:13.334Z,29.10
2018-07-09T11:14:13.383Z,29.03
2018-07-09T11:15:13.352Z,29.12
2018-07-09T11:16:13.497Z,29.18
2018-07-09T11:17:13.349Z,29.23
2018-07-09T11:18:13.351Z,29.32
2018-07-09T11:19:13.361Z,29.27
2018-07-09T11:20:13.368Z,29.32
2018-07-09T11:21:13.365Z,29.48
2018-07-09T11:22:13.367Z,29.48
2018-07-09T11:23:13.380Z,29.58
2018-07-09T11:24:13.374Z,29.55
2018-07-09T11:25:13.387Z,29.64
2018-07-09T11:26:13.382Z,29.78
2018-07-09T11:27:13.399Z,29.71
2018-07-09T11:28:13.395Z,29.74
2018-07-09T11:29:13.405Z,29.62
2018-07-09T11:30:13.397Z,29.63
2018-07-09T11:31:13.403Z,29.51
2018-07-09T11:32:13.412Z,29.33
2018-07-09T11:33:13.406Z,29.30
2018-07-09T11:34:13.410Z,29.21
2018-07-09T11:35:13.417Z,29.20
2018-07-09T11:36:13.429Z,29.21
2018-07-09T11:37:13.423Z,29.23
2018-07-09T11:38:13.425Z,29.26
2018-07-09T11:39:13.439Z,29.51
2018-07-09T11:40:13.432Z,29.51
2018-07-09T11:41:13.451Z,29.49
2018-07-09T11:42:13.468Z,29.55
2018-07-09T11:43:13.444Z,29.64
2018-07-09T11:44:13.459Z,29.49
2018-07-09T11:45:13.453Z,29.39
2018-07-09T11:46:13.458Z,29.35
2018-07-09T11:47:13.459Z,29.36
2018-07-09T11:48:13.468Z,29.45
2018-07-09T11:49:13.470Z,29.41
2018-07-09T11:50:13.472Z,29.51
2018-07-09T11:51:13.475Z,29.36
2018-07-09T11:52:13.504Z,29.30
2018-07-09T11:53:13.492Z,29.37
2018-07-09T11:54:13.487Z,29.42
2018-07-09T11:55:13.491Z,29.47
2018-07-09T11:56:13.498Z,29.52
2018-07-09T11:57:13.499Z,29.62
2018-07-09T11:58:13.508Z,29.73
2018-07-09T11:59:13.508Z,29.79
2018-07-09T12:00:13.521Z,29.86
2018-07-09T12:01:13.518Z,29.95
2018-07-09T12:02:13.520Z,29.86
2018-07-09T12:03:13.525Z,29.79
2018-07-09T12:04:13.535Z,29.64
2018-07-09T12:05:13.532Z,29.64
2018-07-09T12:06:13.540Z,29.60
2018-07-09T12:07:13.542Z,29.63
2018-07-09T12:08:13.543Z,29.66
2018-07-09T12:09:13.547Z,29.73
2018-07-09T12:10:13.556Z,29.74
2018-07-09T12:11:13.565Z,29.76
2018-07-09T12:12:13.579Z,30.10
2018-07-09T12:13:13.564Z,30.36
2018-07-09T12:14:13.569Z,30.40
2018-07-09T12:15:13.585Z,30.10
2018-07-09T12:16:13.581Z,30.03
2018-07-09T12:17:13.580Z,29.82
2018-07-09T12:18:13.582Z,29.84
2018-07-09T12:19:13.595Z,29.76
2018-07-09T12:20:13.593Z,29.73
2018-07-09T12:21:13.599Z,29.79
2018-07-09T12:22:13.610Z,29.71
2018-07-09T12:23:13.705Z,29.76
2018-07-09T12:24:13.609Z,29.67
2018-07-09T12:25:13.622Z,29.79
2018-07-09T12:26:13.622Z,29.69
2018-07-09T12:27:13.631Z,29.78
2018-07-09T12:28:13.627Z,29.88
2018-07-09T12:29:13.736Z,29.81
2018-07-09T12:30:13.640Z,29.84
2018-07-09T12:31:13.651Z,29.79
2018-07-09T12:32:13.650Z,29.79
2018-07-09T12:33:13.656Z,29.73
2018-07-09T12:34:13.650Z,29.69
2018-07-09T12:35:13.656Z,29.64
2018-07-09T12:36:13.764Z,29.73
2018-07-09T12:37:13.666Z,29.76
2018-07-09T12:38:13.675Z,29.78
2018-07-09T12:39:13.683Z,29.71
2018-07-09T12:40:13.676Z,29.78
2018-07-09T12:41:13.690Z,29.74
2018-07-09T12:42:13.682Z,29.63
2018-07-09T12:43:13.694Z,29.64
2018-07-09T12:44:13.693Z,29.52
2018-07-09T12:45:13.702Z,29.60
2018-07-09T12:46:13.699Z,29.57
2018-07-09T12:47:13.708Z,29.66
2018-07-09T12:48:13.705Z,29.58
2018-07-09T12:49:13.712Z,29.74
2018-07-09T12:50:13.728Z,29.71
2018-07-09T12:51:13.721Z,29.84
2018-07-09T12:52:13.723Z,29.79